EDT,Max TemperatureF,Mean TemperatureF,Min TemperatureF,Max Dew PointF,MeanDew PointF,Min DewpointF,Max Humidity, Mean Humidity, Min Humidity, Max Sea Level PressureIn, Mean Sea Level PressureIn, Min Sea Level PressureIn, Max VisibilityMiles, Mean VisibilityMiles, Min VisibilityMiles, Max Wind SpeedMPH, Mean Wind SpeedMPH, Max Gust SpeedMPH,PrecipitationIn, CloudCover, Events, WindDirDegrees
2012-9-1,84,73,61,65,56,51,84,59,34,30.14,30.10,30.06,10,10,10,13,5,16,0.00,3,,55
2012-9-2,86,75,64,63,59,56,84,61,37,30.07,30.02,29.97,10,10,10,0,8,0,0.00,1,,84
2012-9-3,90,76,61,67,62,57,90,67,44,30.00,29.95,29.87,10,10,10,12,3,21,0.00,1,,73
2012-9-4,83,73,63,68,66,62,93,78,62,29.92,29.89,29.86,10,7,1,13,2,15,0.46,4,Rain-Thunderstorm,15
2012-9-5,81,71,60,69,64,60,100,84,67,29.90,29.86,29.77,10,4,0,15,6,20,0.00,1,Fog,194
2012-9-6,84,71,58,63,59,56,93,67,40,29.91,29.88,29.82,10,9,2,6,2,8,0.00,1,,235
2012-9-7,77,67,56,63,58,53,93,71,49,29.93,29.80,29.67,10,8,1,26,6,32,1.02,4,Rain-Thunderstorm,318
2012-9-8,71,61,50,56,53,48,93,72,51,29.86,29.74,29.67,10,9,5,24,10,31,0.21,7,Rain,309
2012-9-9,71,59,46,52,47,42,93,64,35,30.11,29.98,29.86,10,10,8,16,5,21,0.00,1,,351
2012-9-10,74,58,42,49,46,41,93,66,38,30.25,30.18,30.12,10,10,10,12,4,16,0.00,0,,227
2012-9-11,80,65,50,55,50,44,72,56,39,30.21,30.17,30.12,10,10,10,17,8,23,0.00,0,,197
2012-9-12,83,72,60,57,53,50,73,55,37,30.21,30.18,30.14,10,10,10,16,7,21,0.00,0,,203
2012-9-13,83,70,57,61,57,55,93,69,45,30.28,30.22,30.16,10,9,2,21,10,25,0.16,6,Rain,260
2012-9-14,72,61,50,55,50,42,93,66,38,30.29,30.27,30.24,10,8,2,18,8,25,0.46,5,Rain,331
2012-9-15,72,57,42,48,45,40,92,65,38,30.35,30.27,30.17,10,10,10,12,3,16,0.00,1,,241
2012-9-16,78,64,50,51,47,44,80,56,32,30.16,30.08,30.01,10,10,10,37,6,81,0.00,1,,218
2012-9-17,77,67,56,56,50,45,78,61,43,30.02,29.88,29.70,10,10,10,15,7,21,0.00,3,,193
2012-9-18,64,53,42,58,48,34,93,70,46,29.97,29.73,29.63,10,10,2,30,11,37,0.05,6,Rain,311
2012-9-19,66,51,35,40,36,34,92,63,34,30.11,30.03,29.94,10,10,10,16,8,23,0.00,1,,210
2012-9-20,71,59,47,50,43,36,71,56,40,29.94,29.88,29.83,10,10,10,18,10,26,0.05,2,Rain,224
2012-9-21,70,58,45,50,43,37,96,65,33,29.93,29.88,29.78,10,10,6,23,6,29,0.15,3,Rain,231
2012-9-22,61,52,42,48,42,37,93,70,46,30.08,29.86,29.73,10,10,9,21,9,30,T,4,Rain,280
2012-9-23,57,48,38,40,38,35,92,70,47,30.22,30.16,30.09,10,10,4,20,8,24,0.02,5,Rain,275
2012-9-24,63,49,34,39,35,32,92,63,34,30.21,30.08,29.89,10,10,10,24,11,35,0.00,0,,223
2012-9-25,71,61,50,51,44,34,80,62,43,29.94,29.89,29.85,10,10,10,16,9,21,0.00,2,,205
2012-9-26,71,60,48,56,52,42,93,67,40,30.17,29.98,29.90,10,6,1,14,5,17,0.00,6,,28
2012-9-27,66,54,41,46,43,40,92,70,48,30.27,30.22,30.18,10,10,10,14,6,17,0.00,4,,79
2012-9-28,69,58,46,47,45,43,83,63,42,30.19,30.15,30.09,10,10,10,12,2,20,0.00,4,,330
2012-9-29,72,57,41,46,42,39,96,65,33,30.10,30.03,29.95,10,9,6,13,5,16,0.00,1,,347
2012-9-30,65,52,38,47,44,38,96,70,44,29.99,29.97,29.95,10,7,0,16,5,21,0.00,4,Fog,7